createdAt,value
2023-04-18T00:01:52.925Z,51.47
2023-04-18T00:04:20.416Z,51.54
2023-04-18T00:06:49.737Z,51.95
2023-04-18T00:09:16.579Z,51.65
2023-04-18T00:11:43.628Z,51.48
2023-04-18T00:14:10.527Z,51.60
2023-04-18T00:16:38.912Z,51.67
2023-04-18T00:19:06.852Z,51.76
2023-04-18T00:21:33.687Z,51.57
2023-04-18T00:24:00.627Z,51.65
2023-04-18T00:26:28.273Z,51.49
2023-04-18T00:28:56.396Z,51.82
2023-04-18T00:31:23.416Z,51.49
2023-04-18T00:33:50.931Z,51.48
2023-04-18T00:36:17.835Z,51.44
2023-04-18T00:38:45.106Z,51.55
2023-04-18T00:41:12.008Z,51.28
2023-04-18T00:43:38.825Z,51.58
2023-04-18T00:46:06.437Z,51.53
2023-04-18T00:48:34.116Z,51.07
2023-04-18T00:51:01.906Z,50.94
2023-04-18T00:53:29.520Z,51.21
2023-04-18T00:55:56.424Z,51.35
2023-04-18T00:58:24.913Z,50.94
2023-04-18T01:00:52.235Z,51.01
2023-04-18T01:03:19.186Z,51.21
2023-04-18T01:05:46.588Z,51.55
2023-04-18T01:08:14.364Z,51.54
2023-04-18T01:10:41.964Z,51.45
2023-04-18T01:13:20.472Z,50.99
2023-04-18T01:15:49.349Z,50.91
2023-04-18T01:18:17.363Z,51.21
2023-04-18T01:20:47.689Z,50.95
2023-04-18T01:23:15.844Z,50.73
2023-04-18T01:25:43.972Z,50.79
2023-04-18T01:28:12.217Z,50.82
2023-04-18T01:30:39.041Z,50.84
2023-04-18T01:33:06.673Z,50.67
2023-04-18T01:35:33.851Z,51.11
2023-04-18T01:38:01.442Z,50.94
2023-04-18T01:40:28.413Z,51.10
2023-04-18T01:42:55.349Z,50.81
2023-04-18T01:45:22.529Z,51.30
2023-04-18T01:47:49.529Z,51.05
2023-04-18T01:50:16.424Z,50.66
2023-04-18T01:52:43.283Z,51.35
2023-04-18T01:55:10.506Z,50.87
2023-04-18T01:57:38.031Z,51.39
2023-04-18T02:00:06.573Z,51.24
2023-04-18T02:02:41.525Z,51.36
2023-04-18T02:05:09.288Z,51.20
2023-04-18T02:07:38.540Z,50.88
2023-04-18T02:10:06.049Z,50.34
2023-04-18T02:12:34.301Z,50.93
2023-04-18T02:15:01.562Z,50.87
2023-04-18T02:17:28.840Z,50.81
2023-04-18T02:19:55.948Z,51.36
2023-04-18T02:22:23.065Z,50.67
2023-04-18T02:24:49.982Z,50.50
2023-04-18T02:27:16.897Z,50.95
2023-04-18T02:29:43.770Z,50.92
2023-04-18T02:32:11.080Z,50.59
2023-04-18T02:34:38.104Z,50.28
2023-04-18T02:37:05.182Z,50.80
2023-04-18T02:39:32.608Z,50.84
2023-04-18T02:41:59.517Z,50.33
2023-04-18T02:44:26.473Z,49.86
2023-04-18T02:46:53.333Z,49.90
2023-04-18T02:49:20.312Z,50.62
2023-04-18T02:51:47.456Z,49.92
2023-04-18T02:54:15.437Z,50.26
2023-04-18T02:57:04.884Z,49.81
2023-04-18T02:59:55.145Z,50.25
2023-04-18T03:02:22.144Z,51.38
2023-04-18T03:04:53.882Z,50.80
2023-04-18T03:07:20.869Z,50.74
2023-04-18T03:09:48.990Z,50.61
2023-04-18T03:12:22.976Z,50.13
2023-04-18T03:14:49.982Z,50.94
2023-04-18T03:17:17.027Z,50.65
2023-04-18T03:19:47.400Z,50.47
2023-04-18T03:22:16.503Z,49.70
2023-04-18T03:24:48.995Z,49.70
2023-04-18T03:27:16.334Z,50.25
2023-04-18T03:29:44.129Z,50.33
2023-04-18T03:32:11.480Z,50.02
2023-04-18T03:34:38.915Z,50.14
2023-04-18T03:37:07.493Z,49.63
2023-04-18T03:39:38.194Z,49.69
2023-04-18T03:42:05.508Z,50.04
2023-04-18T03:44:33.296Z,49.83
2023-04-18T03:47:00.608Z,50.30
2023-04-18T03:49:28.189Z,50.48
2023-04-18T03:51:55.184Z,50.41
2023-04-18T03:54:22.062Z,50.72
2023-04-18T03:56:49.424Z,50.49
2023-04-18T03:59:16.389Z,50.10
2023-04-18T04:01:45.998Z,50.26
2023-04-18T04:04:15.668Z,49.91
2023-04-18T04:06:43.364Z,50.04
2023-04-18T04:09:10.583Z,49.96
2023-04-18T04:11:38.491Z,49.84
2023-04-18T04:14:06.806Z,49.83
2023-04-18T04:16:38.367Z,49.91
2023-04-18T04:19:05.921Z,49.69
2023-04-18T04:21:37.616Z,49.90
2023-04-18T04:24:05.268Z,50.28
2023-04-18T04:26:37.092Z,50.18
2023-04-18T04:29:11.220Z,50.34
2023-04-18T04:31:38.668Z,50.31
2023-04-18T04:34:06.311Z,50.23
2023-04-18T04:36:33.583Z,50.39
2023-04-18T04:39:04.286Z,50.49
2023-04-18T04:41:43.503Z,50.30
2023-04-18T04:44:11.040Z,50.43
2023-04-18T04:46:40.454Z,50.63
2023-04-18T04:49:12.361Z,50.56
2023-04-18T04:51:40.266Z,50.91
2023-04-18T04:54:07.185Z,51.16
2023-04-18T04:56:34.092Z,50.99
2023-04-18T04:59:01.993Z,50.71
2023-04-18T05:01:34.055Z,50.75
2023-04-18T05:04:01.208Z,51.06
2023-04-18T05:06:28.341Z,51.57
2023-04-18T05:08:56.961Z,51.31
2023-04-18T05:11:23.943Z,52.02
2023-04-18T05:13:50.751Z,51.66
2023-04-18T05:16:18.086Z,51.94
2023-04-18T05:18:44.944Z,51.08
2023-04-18T05:21:11.754Z,50.85
2023-04-18T05:23:38.579Z,50.68
2023-04-18T05:26:06.308Z,50.25
2023-04-18T05:28:33.222Z,51.13
2023-04-18T05:31:03.011Z,50.45
2023-04-18T05:33:31.734Z,50.52
2023-04-18T05:35:59.300Z,50.15
2023-04-18T05:38:26.369Z,50.34
2023-04-18T05:40:55.949Z,50.09
2023-04-18T05:43:23.591Z,50.61
2023-04-18T05:45:52.395Z,50.24
2023-04-18T05:48:19.567Z,50.12
2023-04-18T05:50:46.379Z,50.60
2023-04-18T05:53:13.349Z,50.13
2023-04-18T05:55:41.137Z,49.73
2023-04-18T05:58:08.115Z,49.67
2023-04-18T06:00:35.161Z,49.84
2023-04-18T06:03:02.286Z,49.25
2023-04-18T06:05:29.855Z,49.03
2023-04-18T06:07:57.981Z,49.19
2023-04-18T06:10:24.806Z,48.76
2023-04-18T06:12:51.745Z,48.10
2023-04-18T06:15:18.667Z,48.07
2023-04-18T06:17:45.842Z,46.90
2023-04-18T06:20:12.954Z,46.77
2023-04-18T06:22:39.907Z,46.84
2023-04-18T06:25:09.058Z,46.51
2023-04-18T06:27:37.553Z,45.36
2023-04-18T06:30:05.981Z,44.99
2023-04-18T06:32:32.918Z,44.40
2023-04-18T06:34:59.838Z,44.27
2023-04-18T06:37:26.863Z,43.79
2023-04-18T06:39:53.823Z,43.58
2023-04-18T06:42:22.366Z,43.70
2023-04-18T06:44:50.088Z,44.06
2023-04-18T06:47:17.052Z,43.93
2023-04-18T06:49:43.896Z,43.73
2023-04-18T06:52:11.152Z,43.77
2023-04-18T06:54:38.063Z,43.33
2023-04-18T06:57:05.081Z,43.33
2023-04-18T06:59:31.912Z,42.72
2023-04-18T07:01:58.742Z,42.30
2023-04-18T07:04:26.298Z,41.93
2023-04-18T07:06:53.267Z,41.26
2023-04-18T07:09:20.752Z,41.08
2023-04-18T07:11:47.551Z,41.19
2023-04-18T07:14:14.724Z,40.88
2023-04-18T07:16:41.915Z,40.45
2023-04-18T07:19:08.938Z,40.45
2023-04-18T07:21:37.864Z,40.16
2023-04-18T07:24:04.899Z,40.11
2023-04-18T07:26:31.857Z,39.60
2023-04-18T07:28:58.676Z,39.13
2023-04-18T07:31:25.989Z,38.91
2023-04-18T07:33:52.865Z,38.15
2023-04-18T07:36:19.628Z,38.02
2023-04-18T07:38:46.912Z,38.04
2023-04-18T07:41:13.790Z,38.51
2023-04-18T07:43:40.713Z,38.09
2023-04-18T07:46:08.194Z,38.12
2023-04-18T07:48:35.181Z,37.61
2023-04-18T07:51:02.892Z,36.73
2023-04-18T07:53:29.854Z,36.48
2023-04-18T07:55:56.773Z,36.37
2023-04-18T07:58:23.582Z,36.12
2023-04-18T08:00:50.360Z,36.66
2023-04-18T08:03:17.326Z,36.30
2023-04-18T08:05:44.293Z,35.77
2023-04-18T08:08:12.140Z,36.48
2023-04-18T08:10:39.192Z,36.23
2023-04-18T08:13:06.966Z,35.24
2023-04-18T08:15:33.941Z,35.23
2023-04-18T08:18:02.235Z,35.83
2023-04-18T08:20:29.505Z,35.88
2023-04-18T08:23:06.946Z,35.82
2023-04-18T08:25:36.589Z,36.26
2023-04-18T08:28:04.244Z,35.71
2023-04-18T08:30:31.634Z,36.39
2023-04-18T08:33:02.140Z,35.84
2023-04-18T08:35:29.156Z,36.32
2023-04-18T08:37:55.991Z,35.80
2023-04-18T08:40:23.002Z,35.16
2023-04-18T08:42:53.063Z,35.01
2023-04-18T08:45:20.109Z,34.71
2023-04-18T08:47:47.125Z,34.80
2023-04-18T08:50:14.000Z,34.51
2023-04-18T08:52:48.216Z,33.74
2023-04-18T08:55:16.316Z,33.69
2023-04-18T08:57:43.996Z,33.49
2023-04-18T09:00:11.835Z,33.87
2023-04-18T09:02:43.842Z,33.81
2023-04-18T09:05:21.674Z,32.85
2023-04-18T09:07:50.877Z,32.43
2023-04-18T09:10:33.037Z,32.50
2023-04-18T09:13:05.659Z,32.03
2023-04-18T09:15:32.550Z,31.81
2023-04-18T09:18:03.257Z,31.93
2023-04-18T09:20:41.459Z,31.99
2023-04-18T09:23:16.368Z,31.37
2023-04-18T09:25:48.207Z,30.97
2023-04-18T09:28:24.042Z,30.91
2023-04-18T09:30:52.824Z,31.47
2023-04-18T09:33:33.629Z,31.18
2023-04-18T09:36:18.901Z,31.58
2023-04-18T09:38:46.377Z,30.20
2023-04-18T09:41:16.569Z,31.02
2023-04-18T09:43:46.610Z,30.59
2023-04-18T09:46:14.456Z,30.05
2023-04-18T09:48:42.028Z,29.95
2023-04-18T09:51:16.055Z,29.86
2023-04-18T09:53:45.102Z,29.30
2023-04-18T09:56:28.022Z,29.46
2023-04-18T09:59:08.772Z,29.01
2023-04-18T10:01:36.703Z,29.41
2023-04-18T10:04:06.885Z,29.37
2023-04-18T10:06:38.527Z,29.69
2023-04-18T10:09:06.104Z,29.74
2023-04-18T10:11:33.448Z,29.51
2023-04-18T10:14:09.897Z,29.35
2023-04-18T10:16:38.855Z,29.90
2023-04-18T10:19:21.136Z,29.60
2023-04-18T10:21:56.491Z,29.06
2023-04-18T10:24:48.522Z,28.97
2023-04-18T10:27:19.099Z,28.97
2023-04-18T10:29:50.830Z,28.16
2023-04-18T10:32:23.708Z,28.22
2023-04-18T10:34:53.553Z,29.24
2023-04-18T10:37:20.465Z,29.13
2023-04-18T10:40:07.630Z,29.26
2023-04-18T10:42:46.665Z,29.03
2023-04-18T10:45:20.490Z,28.84
2023-04-18T10:47:47.426Z,28.50
2023-04-18T10:50:15.639Z,28.12
2023-04-18T10:52:42.761Z,28.75
2023-04-18T10:55:11.655Z,28.78
2023-04-18T10:57:49.491Z,28.21
2023-04-18T11:00:19.037Z,27.75
2023-04-18T11:02:52.025Z,27.84
2023-04-18T11:05:21.413Z,27.77
2023-04-18T11:07:51.325Z,27.98
2023-04-18T11:10:24.586Z,28.31
2023-04-18T11:12:53.258Z,27.87
2023-04-18T11:15:24.674Z,27.81
2023-04-18T11:18:03.916Z,28.17
2023-04-18T11:20:46.119Z,28.40
2023-04-18T11:23:30.803Z,28.20
2023-04-18T11:25:58.418Z,28.70
2023-04-18T11:28:25.432Z,28.36
2023-04-18T11:30:52.296Z,27.50
2023-04-18T11:33:19.181Z,27.15
2023-04-18T11:35:46.895Z,26.93
2023-04-18T11:38:15.206Z,26.92
2023-04-18T11:40:49.644Z,27.97
2023-04-18T11:43:24.689Z,27.39
2023-04-18T11:45:59.405Z,27.14
2023-04-18T11:48:37.052Z,26.96
2023-04-18T11:51:06.007Z,26.82
2023-04-18T11:53:37.131Z,27.36
2023-04-18T11:56:05.671Z,27.72
2023-04-18T11:58:34.144Z,27.02
2023-04-18T12:01:22.001Z,26.74
2023-04-18T12:04:09.279Z,26.87
2023-04-18T12:06:49.986Z,26.99
2023-04-18T12:09:17.714Z,26.92
2023-04-18T12:11:56.264Z,27.07
2023-04-18T12:14:23.202Z,27.19
2023-04-18T12:16:50.824Z,27.44
2023-04-18T12:19:20.811Z,27.86
2023-04-18T12:22:02.145Z,26.94
2023-04-18T12:24:29.070Z,27.05
2023-04-18T12:26:57.760Z,26.85
2023-04-18T12:29:25.723Z,27.12
2023-04-18T12:31:52.998Z,26.73
2023-04-18T12:34:20.500Z,26.86
2023-04-18T12:36:47.451Z,26.37
2023-04-18T12:39:14.419Z,26.01
2023-04-18T12:41:41.319Z,26.02
2023-04-18T12:44:09.403Z,26.19
2023-04-18T12:46:37.080Z,26.16
2023-04-18T12:49:04.029Z,25.90
2023-04-18T12:51:31.568Z,25.89
2023-04-18T12:53:58.476Z,26.26
2023-04-18T12:56:25.683Z,25.98
2023-04-18T12:58:52.560Z,25.96
2023-04-18T13:01:19.950Z,25.82
2023-04-18T13:03:56.397Z,26.12
2023-04-18T13:06:27.468Z,25.85
2023-04-18T13:08:54.393Z,25.80
2023-04-18T13:11:22.631Z,25.45
2023-04-18T13:13:49.688Z,25.19
2023-04-18T13:16:16.697Z,25.19
2023-04-18T13:18:46.351Z,25.70
2023-04-18T13:21:14.753Z,26.00
2023-04-18T13:23:41.468Z,25.77
2023-04-18T13:26:08.889Z,26.09
2023-04-18T13:28:35.567Z,26.50
2023-04-18T13:31:02.178Z,26.56
2023-04-18T13:33:28.832Z,26.61
2023-04-18T13:35:56.045Z,26.82
2023-04-18T13:38:23.501Z,27.45
2023-04-18T13:40:55.841Z,27.64
2023-04-18T13:43:31.626Z,28.06
2023-04-18T13:45:58.407Z,28.05
2023-04-18T13:48:25.082Z,28.02
2023-04-18T13:50:51.745Z,27.95
2023-04-18T13:53:18.864Z,28.25
2023-04-18T13:55:46.098Z,28.03
2023-04-18T13:58:12.965Z,28.20
2023-04-18T14:00:39.917Z,28.41
2023-04-18T14:03:06.958Z,27.88
2023-04-18T14:05:34.172Z,27.66
2023-04-18T14:08:04.081Z,26.95
2023-04-18T14:10:31.425Z,27.08
2023-04-18T14:13:04.135Z,26.75
2023-04-18T14:15:33.291Z,26.57
2023-04-18T14:18:01.063Z,26.65
2023-04-18T14:20:34.378Z,26.65
2023-04-18T14:23:02.080Z,27.08
2023-04-18T14:25:30.066Z,27.15
2023-04-18T14:28:11.977Z,26.62
2023-04-18T14:30:40.521Z,26.22
2023-04-18T14:33:09.720Z,25.95
2023-04-18T14:35:36.537Z,26.70
2023-04-18T14:38:03.170Z,26.44
2023-04-18T14:40:32.528Z,26.86
2023-04-18T14:42:59.710Z,26.61
2023-04-18T14:45:26.365Z,26.85
2023-04-18T14:47:53.751Z,26.73
2023-04-18T14:50:20.748Z,26.53
2023-04-18T14:52:47.524Z,27.13
2023-04-18T14:55:14.285Z,26.99
2023-04-18T14:57:41.037Z,27.27
2023-04-18T15:00:10.871Z,27.27
2023-04-18T15:02:37.905Z,27.26
2023-04-18T15:05:05.300Z,27.54
2023-04-18T15:07:32.114Z,27.80
2023-04-18T15:09:58.778Z,27.71
2023-04-18T15:12:26.583Z,27.85
2023-04-18T15:14:53.933Z,27.79
2023-04-18T15:17:20.898Z,27.63
2023-04-18T15:19:47.627Z,27.82
2023-04-18T15:22:14.419Z,27.98
2023-04-18T15:24:41.474Z,28.34
2023-04-18T15:27:08.321Z,28.43
2023-04-18T15:29:35.010Z,28.65
2023-04-18T15:32:01.703Z,28.60
2023-04-18T15:34:28.568Z,28.99
2023-04-18T15:36:55.252Z,29.30
2023-04-18T15:39:23.674Z,29.48
2023-04-18T15:41:54.685Z,29.39
2023-04-18T15:44:22.275Z,29.42
2023-04-18T15:46:49.437Z,29.63
2023-04-18T15:49:16.240Z,29.83
2023-04-18T15:51:42.939Z,30.16
2023-04-18T15:54:09.557Z,30.43
2023-04-18T15:56:36.991Z,30.49
2023-04-18T15:59:05.925Z,30.68
2023-04-18T16:01:33.445Z,30.38
2023-04-18T16:04:00.331Z,30.64
2023-04-18T16:06:27.453Z,30.61
2023-04-18T16:08:54.365Z,30.84
2023-04-18T16:11:21.958Z,31.09
2023-04-18T16:13:48.661Z,31.07
2023-04-18T16:16:15.377Z,31.25
2023-04-18T16:18:42.050Z,31.55
2023-04-18T16:21:08.811Z,31.92
2023-04-18T16:23:35.777Z,32.42
2023-04-18T16:26:02.408Z,32.70
2023-04-18T16:28:30.123Z,33.10
2023-04-18T16:30:56.798Z,33.48
2023-04-18T16:33:26.151Z,33.63
2023-04-18T16:35:53.191Z,33.95
2023-04-18T16:38:23.543Z,34.01
2023-04-18T16:40:50.202Z,34.06
2023-04-18T16:43:16.994Z,34.17
2023-04-18T16:45:43.719Z,34.43
2023-04-18T16:48:10.445Z,34.52
2023-04-18T16:50:37.168Z,34.63
2023-04-18T16:53:03.963Z,34.68
2023-04-18T16:55:30.623Z,34.69
2023-04-18T16:57:57.333Z,34.83
2023-04-18T17:00:24.295Z,35.08
2023-04-18T17:02:51.050Z,34.94
2023-04-18T17:05:18.856Z,34.97
2023-04-18T17:07:46.166Z,35.03
2023-04-18T17:10:12.938Z,35.07
2023-04-18T17:12:39.859Z,35.29
2023-04-18T17:15:07.078Z,35.30
2023-04-18T17:17:34.955Z,35.30
2023-04-18T17:20:01.787Z,35.29
2023-04-18T17:22:29.604Z,35.30
2023-04-18T17:24:56.333Z,35.36
2023-04-18T17:27:23.150Z,35.46
2023-04-18T17:29:50.148Z,35.63
2023-04-18T17:32:18.113Z,35.77
2023-04-18T17:34:45.614Z,35.76
2023-04-18T17:37:12.524Z,35.99
2023-04-18T17:39:40.698Z,36.27
2023-04-18T17:42:07.309Z,36.19
2023-04-18T17:44:34.023Z,36.31
2023-04-18T17:47:02.142Z,36.63
2023-04-18T17:49:34.519Z,36.73
2023-04-18T17:52:01.890Z,36.89
2023-04-18T17:54:28.778Z,37.12
2023-04-18T17:56:55.977Z,37.19
2023-04-18T17:59:22.625Z,37.46
2023-04-18T18:01:49.370Z,37.67
2023-04-18T18:04:16.388Z,37.89
2023-04-18T18:06:53.798Z,38.21
2023-04-18T18:09:20.654Z,38.53
2023-04-18T18:11:47.328Z,38.59
2023-04-18T18:14:14.031Z,38.76
2023-04-18T18:16:40.910Z,38.79
2023-04-18T18:19:07.580Z,38.99
2023-04-18T18:21:34.221Z,39.23
2023-04-18T18:24:00.912Z,39.56
2023-04-18T18:26:27.623Z,39.91
2023-04-18T18:28:54.515Z,40.21
2023-04-18T18:31:24.971Z,40.59
2023-04-18T18:33:52.217Z,40.92
2023-04-18T18:36:18.891Z,41.11
2023-04-18T18:38:45.650Z,41.20
2023-04-18T18:41:12.397Z,41.49
2023-04-18T18:43:39.139Z,41.90
2023-04-18T18:46:05.923Z,41.93
2023-04-18T18:48:32.914Z,42.06
2023-04-18T18:50:59.523Z,42.17
2023-04-18T18:53:26.167Z,42.20
2023-04-18T18:55:52.826Z,42.38
2023-04-18T18:58:19.591Z,42.57
2023-04-18T19:00:47.064Z,42.70
2023-04-18T19:03:14.350Z,42.91
2023-04-18T19:05:41.276Z,42.91
2023-04-18T19:08:09.387Z,43.01
2023-04-18T19:10:36.292Z,43.08
2023-04-18T19:13:03.490Z,43.13
2023-04-18T19:15:30.183Z,43.42
2023-04-18T19:17:57.062Z,43.99
2023-04-18T19:20:24.148Z,44.18
2023-04-18T19:22:51.063Z,44.29
2023-04-18T19:25:17.832Z,44.53
2023-04-18T19:27:44.555Z,44.54
2023-04-18T19:30:12.039Z,44.65
2023-04-18T19:32:38.867Z,44.81
2023-04-18T19:35:06.937Z,44.93
2023-04-18T19:37:33.693Z,45.02
2023-04-18T19:40:00.749Z,45.21
2023-04-18T19:42:27.407Z,45.29
2023-04-18T19:44:54.029Z,45.33
2023-04-18T19:47:20.851Z,45.34
2023-04-18T19:49:47.550Z,45.51
2023-04-18T19:52:14.345Z,45.59
2023-04-18T19:54:41.364Z,45.66
2023-04-18T19:57:08.050Z,45.65
2023-04-18T19:59:34.728Z,45.57
2023-04-18T20:02:04.317Z,45.66
2023-04-18T20:04:34.297Z,45.74
2023-04-18T20:07:01.532Z,45.68
2023-04-18T20:09:28.580Z,45.78
2023-04-18T20:11:55.514Z,45.74
2023-04-18T20:14:22.205Z,45.85
2023-04-18T20:16:49.846Z,45.92
2023-04-18T20:19:17.839Z,46.00
2023-04-18T20:21:44.828Z,45.97
2023-04-18T20:24:11.577Z,45.99
2023-04-18T20:26:38.208Z,46.08
2023-04-18T20:29:04.963Z,46.12
2023-04-18T20:31:31.631Z,46.10
2023-04-18T20:33:58.360Z,46.22
2023-04-18T20:36:25.166Z,46.17
2023-04-18T20:38:51.980Z,46.36
2023-04-18T20:41:20.898Z,46.39
2023-04-18T20:43:47.690Z,46.63
2023-04-18T20:46:14.517Z,46.64
2023-04-18T20:48:41.328Z,46.73
2023-04-18T20:51:07.990Z,46.83
2023-04-18T20:53:34.672Z,46.87
2023-04-18T20:56:03.115Z,46.90
2023-04-18T20:58:30.334Z,46.88
2023-04-18T21:00:56.977Z,47.14
2023-04-18T21:03:23.764Z,47.08
2023-04-18T21:05:50.686Z,47.14
2023-04-18T21:08:17.360Z,47.08
2023-04-18T21:10:43.960Z,47.11
2023-04-18T21:13:12.650Z,47.00
2023-04-18T21:15:41.980Z,47.11
2023-04-18T21:18:09.132Z,47.16
2023-04-18T21:20:37.682Z,47.21
2023-04-18T21:23:05.678Z,47.34
2023-04-18T21:25:33.068Z,47.03
2023-04-18T21:28:00.339Z,47.44
2023-04-18T21:30:27.017Z,47.20
2023-04-18T21:32:53.727Z,47.37
2023-04-18T21:35:23.401Z,47.28
2023-04-18T21:37:51.510Z,47.37
2023-04-18T21:40:18.300Z,47.61
2023-04-18T21:42:44.943Z,47.64
2023-04-18T21:45:11.909Z,47.87
2023-04-18T21:47:38.650Z,48.10
2023-04-18T21:50:06.120Z,48.28
2023-04-18T21:52:32.736Z,48.38
2023-04-18T21:54:59.557Z,48.50
2023-04-18T21:57:26.849Z,48.46
2023-04-18T21:59:54.723Z,48.85
2023-04-18T22:02:21.945Z,48.84
2023-04-18T22:04:49.106Z,48.97
2023-04-18T22:07:15.917Z,49.00
2023-04-18T22:09:43.644Z,49.25
2023-04-18T22:12:11.575Z,49.32
2023-04-18T22:14:38.228Z,49.07
2023-04-18T22:17:05.026Z,49.07
2023-04-18T22:19:31.733Z,49.20
2023-04-18T22:21:59.013Z,49.20
2023-04-18T22:24:26.090Z,49.35
2023-04-18T22:26:53.196Z,49.56
2023-04-18T22:29:19.807Z,49.40
2023-04-18T22:31:46.399Z,49.27
2023-04-18T22:34:13.149Z,49.31
2023-04-18T22:36:40.022Z,49.54
2023-04-18T22:39:07.478Z,49.42
2023-04-18T22:41:34.155Z,49.40
2023-04-18T22:44:00.799Z,49.37
2023-04-18T22:46:28.247Z,49.59
2023-04-18T22:48:55.359Z,49.72
2023-04-18T22:51:23.540Z,49.90
2023-04-18T22:53:50.355Z,49.83
2023-04-18T22:56:17.201Z,49.62
2023-04-18T22:58:43.917Z,49.74
2023-04-18T23:01:10.861Z,49.85
2023-04-18T23:03:37.702Z,49.85
2023-04-18T23:06:07.528Z,49.79
2023-04-18T23:08:34.377Z,49.78
2023-04-18T23:11:01.047Z,50.10
2023-04-18T23:13:27.627Z,50.15
2023-04-18T23:15:54.370Z,50.22
2023-04-18T23:18:20.972Z,50.14
2023-04-18T23:20:47.564Z,50.19
2023-04-18T23:23:14.219Z,50.16
2023-04-18T23:25:41.003Z,50.03
2023-04-18T23:28:08.008Z,50.43
2023-04-18T23:30:36.926Z,50.52
2023-04-18T23:33:03.756Z,50.42
2023-04-18T23:35:30.700Z,50.45
2023-04-18T23:37:57.497Z,50.67
2023-04-18T23:40:24.397Z,50.46
2023-04-18T23:42:51.146Z,51.01
2023-04-18T23:45:17.942Z,50.85
2023-04-18T23:47:44.567Z,50.95
2023-04-18T23:50:12.132Z,51.04
2023-04-18T23:52:38.785Z,51.21
2023-04-18T23:55:05.891Z,51.18
2023-04-18T23:57:32.573Z,51.23
2023-04-18T23:59:59.182Z,50.98
